sensor_id;sensor_type;location;lat;lon;timestamp;P1;durP1;ratioP1;P2;durP2;ratioP2
2646;SDS011;1333;50.958;6.770;2022-12-13T00:01:11;16.90;;;8.30;;
2646;SDS011;1333;50.958;6.770;2022-12-13T00:03:37;12.40;;;8.07;;
2646;SDS011;1333;50.958;6.770;2022-12-13T00:06:04;18.03;;;9.47;;
2646;SDS011;1333;50.958;6.770;2022-12-13T00:08:31;12.73;;;7.53;;
2646;SDS011;1333;50.958;6.770;2022-12-13T00:10:57;16.00;;;8.43;;
2646;SDS011;1333;50.958;6.770;2022-12-13T00:13:24;13.93;;;7.60;;
2646;SDS011;1333;50.958;6.770;2022-12-13T00:15:57;22.33;;;9.20;;
2646;SDS011;1333;50.958;6.770;2022-12-13T00:18:24;21.20;;;9.50;;
2646;SDS011;1333;50.958;6.770;2022-12-13T00:20:49;17.57;;;8.90;;
2646;SDS011;1333;50.958;6.770;2022-12-13T00:23:15;18.80;;;8.50;;
2646;SDS011;1333;50.958;6.770;2022-12-13T00:25:40;16.90;;;10.70;;
2646;SDS011;1333;50.958;6.770;2022-12-13T00:28:06;18.03;;;8.67;;
2646;SDS011;1333;50.958;6.770;2022-12-13T00:30:32;25.80;;;10.50;;
2646;SDS011;1333;50.958;6.770;2022-12-13T00:32:58;26.67;;;8.53;;
2646;SDS011;1333;50.958;6.770;2022-12-13T00:35:24;17.83;;;7.87;;
2646;SDS011;1333;50.958;6.770;2022-12-13T00:37:49;18.13;;;9.57;;
2646;SDS011;1333;50.958;6.770;2022-12-13T00:40:15;18.93;;;10.07;;
2646;SDS011;1333;50.958;6.770;2022-12-13T00:42:40;25.40;;;8.30;;
2646;SDS011;1333;50.958;6.770;2022-12-13T00:45:06;27.30;;;10.57;;
2646;SDS011;1333;50.958;6.770;2022-12-13T00:47:33;18.67;;;8.50;;
2646;SDS011;1333;50.958;6.770;2022-12-13T00:49:59;23.80;;;10.63;;
2646;SDS011;1333;50.958;6.770;2022-12-13T00:52:25;18.00;;;10.47;;
2646;SDS011;1333;50.958;6.770;2022-12-13T00:54:50;17.07;;;8.87;;
2646;SDS011;1333;50.958;6.770;2022-12-13T00:57:16;22.23;;;9.73;;
2646;SDS011;1333;50.958;6.770;2022-12-13T00:59:41;13.47;;;9.10;;
2646;SDS011;1333;50.958;6.770;2022-12-13T01:02:07;16.73;;;9.60;;
2646;SDS011;1333;50.958;6.770;2022-12-13T01:04:32;15.30;;;7.33;;
2646;SDS011;1333;50.958;6.770;2022-12-13T01:06:58;16.43;;;8.80;;
2646;SDS011;1333;50.958;6.770;2022-12-13T01:09:25;19.83;;;8.30;;
2646;SDS011;1333;50.958;6.770;2022-12-13T01:11:56;11.73;;;8.17;;
2646;SDS011;1333;50.958;6.770;2022-12-13T01:14:23;21.23;;;9.73;;
2646;SDS011;1333;50.958;6.770;2022-12-13T01:16:49;19.83;;;10.40;;
2646;SDS011;1333;50.958;6.770;2022-12-13T01:19:15;29.53;;;12.10;;
2646;SDS011;1333;50.958;6.770;2022-12-13T01:21:40;14.87;;;8.80;;
2646;SDS011;1333;50.958;6.770;2022-12-13T01:24:06;14.87;;;8.37;;
2646;SDS011;1333;50.958;6.770;2022-12-13T01:26:32;18.17;;;8.43;;
2646;SDS011;1333;50.958;6.770;2022-12-13T01:28:58;18.30;;;11.30;;
2646;SDS011;1333;50.958;6.770;2022-12-13T01:31:24;24.60;;;10.37;;
2646;SDS011;1333;50.958;6.770;2022-12-13T01:33:50;21.10;;;10.70;;
2646;SDS011;1333;50.958;6.770;2022-12-13T01:36:19;15.93;;;8.60;;
2646;SDS011;1333;50.958;6.770;2022-12-13T01:38:46;23.00;;;11.20;;
2646;SDS011;1333;50.958;6.770;2022-12-13T01:41:12;15.07;;;9.13;;
2646;SDS011;1333;50.958;6.770;2022-12-13T01:46:05;14.63;;;7.70;;
2646;SDS011;1333;50.958;6.770;2022-12-13T01:48:32;13.67;;;8.30;;
2646;SDS011;1333;50.958;6.770;2022-12-13T01:51:03;25.87;;;11.23;;
2646;SDS011;1333;50.958;6.770;2022-12-13T01:53:32;17.40;;;8.40;;
2646;SDS011;1333;50.958;6.770;2022-12-13T01:56:01;18.30;;;9.13;;
2646;SDS011;1333;50.958;6.770;2022-12-13T01:58:32;16.80;;;9.40;;
2646;SDS011;1333;50.958;6.770;2022-12-13T02:00:59;22.17;;;12.90;;
2646;SDS011;1333;50.958;6.770;2022-12-13T02:03:25;18.20;;;9.00;;
2646;SDS011;1333;50.958;6.770;2022-12-13T02:06:02;15.73;;;8.93;;
2646;SDS011;1333;50.958;6.770;2022-12-13T02:08:32;20.77;;;8.70;;
2646;SDS011;1333;50.958;6.770;2022-12-13T02:10:58;12.90;;;8.43;;
2646;SDS011;1333;50.958;6.770;2022-12-13T02:13:25;21.77;;;9.93;;
2646;SDS011;1333;50.958;6.770;2022-12-13T02:21:29;23.00;;;9.50;;
2646;SDS011;1333;50.958;6.770;2022-12-13T02:26:59;14.17;;;10.30;;
2646;SDS011;1333;50.958;6.770;2022-12-13T02:35:14;25.53;;;11.33;;
2646;SDS011;1333;50.958;6.770;2022-12-13T02:37:48;17.73;;;9.40;;
2646;SDS011;1333;50.958;6.770;2022-12-13T02:40:21;31.70;;;10.57;;
2646;SDS011;1333;50.958;6.770;2022-12-13T02:42:51;17.97;;;9.00;;
2646;SDS011;1333;50.958;6.770;2022-12-13T02:45:54;16.90;;;8.80;;
2646;SDS011;1333;50.958;6.770;2022-12-13T02:48:25;19.93;;;11.07;;
2646;SDS011;1333;50.958;6.770;2022-12-13T02:50:53;23.03;;;12.07;;
2646;SDS011;1333;50.958;6.770;2022-12-13T02:53:21;22.07;;;7.23;;
2646;SDS011;1333;50.958;6.770;2022-12-13T02:55:48;21.00;;;9.10;;
2646;SDS011;1333;50.958;6.770;2022-12-13T02:58:24;15.20;;;9.47;;
2646;SDS011;1333;50.958;6.770;2022-12-13T03:03:36;14.83;;;8.80;;
2646;SDS011;1333;50.958;6.770;2022-12-13T03:09:54;18.63;;;9.73;;
2646;SDS011;1333;50.958;6.770;2022-12-13T03:12:33;17.70;;;9.90;;
2646;SDS011;1333;50.958;6.770;2022-12-13T03:15:26;29.63;;;14.43;;
2646;SDS011;1333;50.958;6.770;2022-12-13T03:20:30;23.53;;;9.10;;
2646;SDS011;1333;50.958;6.770;2022-12-13T03:22:56;26.30;;;12.87;;
2646;SDS011;1333;50.958;6.770;2022-12-13T03:25:23;24.67;;;10.00;;
2646;SDS011;1333;50.958;6.770;2022-12-13T03:27:54;15.30;;;9.80;;
2646;SDS011;1333;50.958;6.770;2022-12-13T03:30:20;30.40;;;10.67;;
2646;SDS011;1333;50.958;6.770;2022-12-13T03:32:45;16.10;;;8.33;;
2646;SDS011;1333;50.958;6.770;2022-12-13T03:35:11;22.20;;;10.70;;
2646;SDS011;1333;50.958;6.770;2022-12-13T03:37:36;20.77;;;9.90;;
2646;SDS011;1333;50.958;6.770;2022-12-13T03:40:02;26.30;;;11.80;;
2646;SDS011;1333;50.958;6.770;2022-12-13T03:42:28;19.80;;;9.00;;
2646;SDS011;1333;50.958;6.770;2022-12-13T03:44:53;14.83;;;8.57;;
2646;SDS011;1333;50.958;6.770;2022-12-13T03:47:19;22.40;;;10.20;;
2646;SDS011;1333;50.958;6.770;2022-12-13T03:49:44;18.50;;;8.70;;
2646;SDS011;1333;50.958;6.770;2022-12-13T03:52:10;25.97;;;10.50;;
2646;SDS011;1333;50.958;6.770;2022-12-13T03:54:35;26.87;;;11.10;;
2646;SDS011;1333;50.958;6.770;2022-12-13T03:57:01;25.97;;;12.07;;
2646;SDS011;1333;50.958;6.770;2022-12-13T03:59:27;17.27;;;9.33;;
2646;SDS011;1333;50.958;6.770;2022-12-13T04:01:52;19.97;;;9.53;;
2646;SDS011;1333;50.958;6.770;2022-12-13T04:04:18;19.53;;;10.67;;
2646;SDS011;1333;50.958;6.770;2022-12-13T04:06:43;27.70;;;12.13;;
2646;SDS011;1333;50.958;6.770;2022-12-13T04:09:09;19.67;;;10.60;;
2646;SDS011;1333;50.958;6.770;2022-12-13T04:11:34;24.27;;;10.60;;
2646;SDS011;1333;50.958;6.770;2022-12-13T04:14:18;19.77;;;10.03;;
2646;SDS011;1333;50.958;6.770;2022-12-13T04:16:44;16.80;;;9.60;;
2646;SDS011;1333;50.958;6.770;2022-12-13T04:19:09;24.67;;;11.70;;
2646;SDS011;1333;50.958;6.770;2022-12-13T04:21:35;21.00;;;10.27;;
2646;SDS011;1333;50.958;6.770;2022-12-13T04:24:00;18.10;;;10.20;;
2646;SDS011;1333;50.958;6.770;2022-12-13T04:26:26;23.30;;;11.50;;
2646;SDS011;1333;50.958;6.770;2022-12-13T04:28:52;20.67;;;11.80;;
2646;SDS011;1333;50.958;6.770;2022-12-13T04:31:17;23.50;;;12.03;;
2646;SDS011;1333;50.958;6.770;2022-12-13T04:33:43;19.53;;;9.43;;
2646;SDS011;1333;50.958;6.770;2022-12-13T04:36:08;27.63;;;9.60;;
2646;SDS011;1333;50.958;6.770;2022-12-13T04:38:34;24.27;;;11.57;;
2646;SDS011;1333;50.958;6.770;2022-12-13T04:41:06;17.53;;;9.43;;
2646;SDS011;1333;50.958;6.770;2022-12-13T04:43:37;22.30;;;8.83;;
2646;SDS011;1333;50.958;6.770;2022-12-13T04:46:02;25.50;;;11.17;;
2646;SDS011;1333;50.958;6.770;2022-12-13T04:48:28;23.43;;;11.97;;
2646;SDS011;1333;50.958;6.770;2022-12-13T04:50:53;21.90;;;10.37;;
2646;SDS011;1333;50.958;6.770;2022-12-13T04:53:19;21.97;;;11.20;;
2646;SDS011;1333;50.958;6.770;2022-12-13T04:55:44;19.10;;;9.77;;
2646;SDS011;1333;50.958;6.770;2022-12-13T04:58:10;27.20;;;12.57;;
2646;SDS011;1333;50.958;6.770;2022-12-13T05:00:35;28.23;;;10.67;;
2646;SDS011;1333;50.958;6.770;2022-12-13T05:03:01;20.83;;;10.40;;
2646;SDS011;1333;50.958;6.770;2022-12-13T05:05:26;31.40;;;13.00;;
2646;SDS011;1333;50.958;6.770;2022-12-13T05:07:52;23.50;;;11.77;;
2646;SDS011;1333;50.958;6.770;2022-12-13T05:10:17;22.70;;;13.10;;
2646;SDS011;1333;50.958;6.770;2022-12-13T05:12:43;26.30;;;14.90;;
2646;SDS011;1333;50.958;6.770;2022-12-13T05:15:08;33.73;;;15.53;;
2646;SDS011;1333;50.958;6.770;2022-12-13T05:17:34;39.87;;;13.90;;
2646;SDS011;1333;50.958;6.770;2022-12-13T05:20:00;33.57;;;13.50;;
2646;SDS011;1333;50.958;6.770;2022-12-13T05:22:26;26.67;;;14.10;;
2646;SDS011;1333;50.958;6.770;2022-12-13T05:24:51;35.67;;;14.83;;
2646;SDS011;1333;50.958;6.770;2022-12-13T05:27:17;29.17;;;12.07;;
2646;SDS011;1333;50.958;6.770;2022-12-13T05:29:43;18.77;;;11.90;;
2646;SDS011;1333;50.958;6.770;2022-12-13T05:32:08;24.90;;;12.13;;
2646;SDS011;1333;50.958;6.770;2022-12-13T05:34:34;25.80;;;11.03;;
2646;SDS011;1333;50.958;6.770;2022-12-13T05:36:59;22.57;;;12.63;;
2646;SDS011;1333;50.958;6.770;2022-12-13T05:39:25;20.00;;;9.83;;
2646;SDS011;1333;50.958;6.770;2022-12-13T05:41:50;25.57;;;11.77;;
2646;SDS011;1333;50.958;6.770;2022-12-13T05:44:17;26.07;;;12.90;;
2646;SDS011;1333;50.958;6.770;2022-12-13T05:46:42;22.73;;;11.40;;
2646;SDS011;1333;50.958;6.770;2022-12-13T05:49:08;36.63;;;14.67;;
2646;SDS011;1333;50.958;6.770;2022-12-13T05:51:33;26.43;;;13.67;;
2646;SDS011;1333;50.958;6.770;2022-12-13T05:53:59;26.53;;;13.50;;
2646;SDS011;1333;50.958;6.770;2022-12-13T05:56:24;25.83;;;10.93;;
2646;SDS011;1333;50.958;6.770;2022-12-13T05:58:50;29.07;;;13.83;;
2646;SDS011;1333;50.958;6.770;2022-12-13T06:01:15;20.23;;;9.40;;
2646;SDS011;1333;50.958;6.770;2022-12-13T06:03:41;26.70;;;12.90;;
2646;SDS011;1333;50.958;6.770;2022-12-13T06:06:07;21.80;;;11.10;;
2646;SDS011;1333;50.958;6.770;2022-12-13T06:08:34;23.20;;;11.60;;
2646;SDS011;1333;50.958;6.770;2022-12-13T06:11:01;21.53;;;9.00;;
2646;SDS011;1333;50.958;6.770;2022-12-13T06:13:27;22.23;;;10.30;;
2646;SDS011;1333;50.958;6.770;2022-12-13T06:15:53;19.80;;;11.70;;
2646;SDS011;1333;50.958;6.770;2022-12-13T06:18:19;21.43;;;9.20;;
2646;SDS011;1333;50.958;6.770;2022-12-13T06:20:44;23.30;;;10.37;;
2646;SDS011;1333;50.958;6.770;2022-12-13T06:23:19;20.57;;;11.23;;
2646;SDS011;1333;50.958;6.770;2022-12-13T06:25:44;24.00;;;11.13;;
2646;SDS011;1333;50.958;6.770;2022-12-13T06:28:10;36.10;;;11.50;;
2646;SDS011;1333;50.958;6.770;2022-12-13T06:30:35;24.03;;;11.30;;
2646;SDS011;1333;50.958;6.770;2022-12-13T06:33:01;31.03;;;10.77;;
2646;SDS011;1333;50.958;6.770;2022-12-13T06:35:27;23.80;;;9.70;;
2646;SDS011;1333;50.958;6.770;2022-12-13T06:37:53;24.80;;;10.37;;
2646;SDS011;1333;50.958;6.770;2022-12-13T06:40:18;19.30;;;10.47;;
2646;SDS011;1333;50.958;6.770;2022-12-13T06:42:44;19.70;;;10.43;;
2646;SDS011;1333;50.958;6.770;2022-12-13T06:45:09;16.47;;;7.90;;
2646;SDS011;1333;50.958;6.770;2022-12-13T06:47:35;21.70;;;10.77;;
2646;SDS011;1333;50.958;6.770;2022-12-13T06:50:01;20.50;;;9.40;;
2646;SDS011;1333;50.958;6.770;2022-12-13T06:52:26;22.23;;;11.43;;
2646;SDS011;1333;50.958;6.770;2022-12-13T06:54:52;17.20;;;8.57;;
2646;SDS011;1333;50.958;6.770;2022-12-13T06:57:18;18.57;;;9.60;;
2646;SDS011;1333;50.958;6.770;2022-12-13T06:59:43;24.97;;;10.00;;
2646;SDS011;1333;50.958;6.770;2022-12-13T07:02:09;17.83;;;8.97;;
2646;SDS011;1333;50.958;6.770;2022-12-13T07:04:34;22.00;;;10.17;;
2646;SDS011;1333;50.958;6.770;2022-12-13T07:07:00;22.50;;;10.73;;
2646;SDS011;1333;50.958;6.770;2022-12-13T07:09:26;27.80;;;10.07;;
2646;SDS011;1333;50.958;6.770;2022-12-13T07:11:52;20.00;;;11.40;;
2646;SDS011;1333;50.958;6.770;2022-12-13T07:14:18;24.70;;;10.37;;
2646;SDS011;1333;50.958;6.770;2022-12-13T07:16:44;16.23;;;7.97;;
2646;SDS011;1333;50.958;6.770;2022-12-13T07:19:09;13.83;;;9.20;;
2646;SDS011;1333;50.958;6.770;2022-12-13T07:21:35;18.57;;;10.50;;
2646;SDS011;1333;50.958;6.770;2022-12-13T07:24:02;18.63;;;11.67;;
2646;SDS011;1333;50.958;6.770;2022-12-13T07:26:28;16.30;;;9.20;;
2646;SDS011;1333;50.958;6.770;2022-12-13T07:28:53;29.20;;;9.67;;
2646;SDS011;1333;50.958;6.770;2022-12-13T07:31:19;16.33;;;10.20;;
2646;SDS011;1333;50.958;6.770;2022-12-13T07:33:45;18.53;;;8.57;;
2646;SDS011;1333;50.958;6.770;2022-12-13T07:36:11;23.10;;;9.10;;
2646;SDS011;1333;50.958;6.770;2022-12-13T07:38:39;21.30;;;10.50;;
2646;SDS011;1333;50.958;6.770;2022-12-13T07:41:05;12.87;;;6.97;;
2646;SDS011;1333;50.958;6.770;2022-12-13T07:43:31;22.30;;;8.70;;
2646;SDS011;1333;50.958;6.770;2022-12-13T07:45:57;16.17;;;8.80;;
2646;SDS011;1333;50.958;6.770;2022-12-13T07:48:24;22.00;;;9.07;;
2646;SDS011;1333;50.958;6.770;2022-12-13T07:50:50;15.37;;;6.90;;
2646;SDS011;1333;50.958;6.770;2022-12-13T07:53:16;16.87;;;9.27;;
2646;SDS011;1333;50.958;6.770;2022-12-13T07:55:42;18.50;;;10.93;;
2646;SDS011;1333;50.958;6.770;2022-12-13T07:58:12;24.00;;;9.63;;
2646;SDS011;1333;50.958;6.770;2022-12-13T08:00:39;22.37;;;8.87;;
2646;SDS011;1333;50.958;6.770;2022-12-13T08:03:06;23.37;;;9.27;;
2646;SDS011;1333;50.958;6.770;2022-12-13T08:05:32;22.83;;;9.03;;
2646;SDS011;1333;50.958;6.770;2022-12-13T08:07:59;20.77;;;10.13;;
2646;SDS011;1333;50.958;6.770;2022-12-13T08:10:25;25.47;;;12.77;;
2646;SDS011;1333;50.958;6.770;2022-12-13T08:12:51;20.77;;;12.13;;
2646;SDS011;1333;50.958;6.770;2022-12-13T08:15:17;22.37;;;11.90;;
2646;SDS011;1333;50.958;6.770;2022-12-13T08:17:43;17.47;;;9.47;;
2646;SDS011;1333;50.958;6.770;2022-12-13T08:20:08;26.80;;;9.73;;
2646;SDS011;1333;50.958;6.770;2022-12-13T08:22:34;28.93;;;12.17;;
2646;SDS011;1333;50.958;6.770;2022-12-13T08:25:00;17.70;;;10.47;;
2646;SDS011;1333;50.958;6.770;2022-12-13T08:27:26;19.87;;;11.23;;
2646;SDS011;1333;50.958;6.770;2022-12-13T08:29:52;21.00;;;11.57;;
2646;SDS011;1333;50.958;6.770;2022-12-13T08:32:20;23.53;;;10.73;;
2646;SDS011;1333;50.958;6.770;2022-12-13T08:34:45;20.47;;;10.97;;
2646;SDS011;1333;50.958;6.770;2022-12-13T08:37:11;16.67;;;10.83;;
2646;SDS011;1333;50.958;6.770;2022-12-13T08:39:37;17.67;;;10.53;;
2646;SDS011;1333;50.958;6.770;2022-12-13T08:42:10;19.73;;;11.77;;
2646;SDS011;1333;50.958;6.770;2022-12-13T08:44:41;17.30;;;11.13;;
2646;SDS011;1333;50.958;6.770;2022-12-13T08:47:07;18.67;;;10.43;;
2646;SDS011;1333;50.958;6.770;2022-12-13T08:49:32;17.70;;;10.53;;
2646;SDS011;1333;50.958;6.770;2022-12-13T08:51:58;16.33;;;9.27;;
2646;SDS011;1333;50.958;6.770;2022-12-13T08:54:24;16.43;;;9.20;;
2646;SDS011;1333;50.958;6.770;2022-12-13T08:56:50;16.47;;;9.90;;
2646;SDS011;1333;50.958;6.770;2022-12-13T08:59:15;22.83;;;10.90;;
2646;SDS011;1333;50.958;6.770;2022-12-13T09:01:42;22.23;;;12.13;;
2646;SDS011;1333;50.958;6.770;2022-12-13T09:04:07;13.30;;;9.20;;
2646;SDS011;1333;50.958;6.770;2022-12-13T09:06:33;19.90;;;9.57;;
2646;SDS011;1333;50.958;6.770;2022-12-13T09:08:58;13.33;;;7.53;;
2646;SDS011;1333;50.958;6.770;2022-12-13T09:11:24;18.23;;;9.90;;
2646;SDS011;1333;50.958;6.770;2022-12-13T09:13:50;15.27;;;8.93;;
2646;SDS011;1333;50.958;6.770;2022-12-13T09:16:16;17.77;;;10.87;;
2646;SDS011;1333;50.958;6.770;2022-12-13T09:18:46;18.27;;;10.87;;
2646;SDS011;1333;50.958;6.770;2022-12-13T09:21:13;15.50;;;9.23;;
2646;SDS011;1333;50.958;6.770;2022-12-13T09:23:42;16.90;;;9.23;;
2646;SDS011;1333;50.958;6.770;2022-12-13T09:26:12;18.63;;;9.57;;
2646;SDS011;1333;50.958;6.770;2022-12-13T09:28:39;17.50;;;9.67;;
2646;SDS011;1333;50.958;6.770;2022-12-13T09:31:06;14.60;;;9.50;;
2646;SDS011;1333;50.958;6.770;2022-12-13T09:33:33;18.27;;;9.23;;
2646;SDS011;1333;50.958;6.770;2022-12-13T09:36:01;16.57;;;9.73;;
2646;SDS011;1333;50.958;6.770;2022-12-13T09:38:34;23.93;;;10.20;;
2646;SDS011;1333;50.958;6.770;2022-12-13T09:41:11;16.30;;;10.17;;
2646;SDS011;1333;50.958;6.770;2022-12-13T09:43:45;16.20;;;9.20;;
2646;SDS011;1333;50.958;6.770;2022-12-13T09:46:22;14.30;;;10.37;;
2646;SDS011;1333;50.958;6.770;2022-12-13T09:48:55;15.90;;;10.40;;
2646;SDS011;1333;50.958;6.770;2022-12-13T09:51:23;19.13;;;9.70;;
2646;SDS011;1333;50.958;6.770;2022-12-13T09:53:59;18.60;;;11.50;;
2646;SDS011;1333;50.958;6.770;2022-12-13T09:56:25;17.50;;;8.90;;
2646;SDS011;1333;50.958;6.770;2022-12-13T09:58:52;19.20;;;10.40;;
2646;SDS011;1333;50.958;6.770;2022-12-13T10:01:20;18.17;;;10.83;;
2646;SDS011;1333;50.958;6.770;2022-12-13T10:03:47;14.90;;;9.50;;
2646;SDS011;1333;50.958;6.770;2022-12-13T10:08:51;18.63;;;8.00;;
2646;SDS011;1333;50.958;6.770;2022-12-13T10:11:20;15.10;;;8.97;;
2646;SDS011;1333;50.958;6.770;2022-12-13T10:14:07;12.70;;;8.90;;
2646;SDS011;1333;50.958;6.770;2022-12-13T10:19:16;12.20;;;8.17;;
2646;SDS011;1333;50.958;6.770;2022-12-13T10:21:49;15.03;;;8.83;;
2646;SDS011;1333;50.958;6.770;2022-12-13T10:24:17;16.87;;;9.37;;
2646;SDS011;1333;50.958;6.770;2022-12-13T10:26:46;12.20;;;8.30;;
2646;SDS011;1333;50.958;6.770;2022-12-13T10:29:12;17.47;;;9.00;;
2646;SDS011;1333;50.958;6.770;2022-12-13T10:31:44;14.17;;;9.53;;
2646;SDS011;1333;50.958;6.770;2022-12-13T10:36:48;18.00;;;9.93;;
2646;SDS011;1333;50.958;6.770;2022-12-13T10:39:39;17.60;;;10.00;;
2646;SDS011;1333;50.958;6.770;2022-12-13T10:42:05;15.70;;;11.10;;
2646;SDS011;1333;50.958;6.770;2022-12-13T10:44:38;12.30;;;9.60;;
2646;SDS011;1333;50.958;6.770;2022-12-13T10:47:13;14.40;;;10.30;;
2646;SDS011;1333;50.958;6.770;2022-12-13T10:52:23;14.83;;;9.70;;
2646;SDS011;1333;50.958;6.770;2022-12-13T10:55:05;16.37;;;9.10;;
2646;SDS011;1333;50.958;6.770;2022-12-13T10:57:49;12.97;;;9.07;;
2646;SDS011;1333;50.958;6.770;2022-12-13T11:00:34;14.03;;;10.43;;
2646;SDS011;1333;50.958;6.770;2022-12-13T11:03:12;14.13;;;9.60;;
2646;SDS011;1333;50.958;6.770;2022-12-13T11:06:03;13.17;;;9.23;;
2646;SDS011;1333;50.958;6.770;2022-12-13T11:08:35;16.17;;;11.50;;
2646;SDS011;1333;50.958;6.770;2022-12-13T11:11:01;14.13;;;9.90;;
2646;SDS011;1333;50.958;6.770;2022-12-13T11:16:02;11.77;;;9.57;;
2646;SDS011;1333;50.958;6.770;2022-12-13T11:18:37;16.03;;;9.93;;
2646;SDS011;1333;50.958;6.770;2022-12-13T11:21:04;16.10;;;10.70;;
2646;SDS011;1333;50.958;6.770;2022-12-13T11:23:38;12.83;;;8.90;;
2646;SDS011;1333;50.958;6.770;2022-12-13T11:26:09;14.50;;;9.57;;
2646;SDS011;1333;50.958;6.770;2022-12-13T11:37:27;16.87;;;9.67;;
2646;SDS011;1333;50.958;6.770;2022-12-13T11:40:14;13.00;;;9.03;;
2646;SDS011;1333;50.958;6.770;2022-12-13T11:42:44;11.80;;;8.93;;
2646;SDS011;1333;50.958;6.770;2022-12-13T11:45:30;11.43;;;7.80;;
2646;SDS011;1333;50.958;6.770;2022-12-13T11:48:06;16.00;;;9.20;;
2646;SDS011;1333;50.958;6.770;2022-12-13T11:50:48;13.10;;;8.70;;
2646;SDS011;1333;50.958;6.770;2022-12-13T11:56:04;13.23;;;8.73;;
2646;SDS011;1333;50.958;6.770;2022-12-13T12:01:21;14.03;;;8.03;;
2646;SDS011;1333;50.958;6.770;2022-12-13T12:06:53;13.13;;;9.20;;
2646;SDS011;1333;50.958;6.770;2022-12-13T12:09:26;14.80;;;9.70;;
2646;SDS011;1333;50.958;6.770;2022-12-13T12:14:38;13.17;;;9.63;;
2646;SDS011;1333;50.958;6.770;2022-12-13T12:17:13;14.70;;;8.80;;
2646;SDS011;1333;50.958;6.770;2022-12-13T12:19:44;15.30;;;8.87;;
2646;SDS011;1333;50.958;6.770;2022-12-13T12:24:51;13.30;;;9.43;;
2646;SDS011;1333;50.958;6.770;2022-12-13T12:32:47;16.73;;;10.40;;
2646;SDS011;1333;50.958;6.770;2022-12-13T12:54:21;15.13;;;9.17;;
2646;SDS011;1333;50.958;6.770;2022-12-13T12:57:20;13.20;;;8.30;;
2646;SDS011;1333;50.958;6.770;2022-12-13T13:02:36;12.00;;;7.97;;
2646;SDS011;1333;50.958;6.770;2022-12-13T13:05:26;13.70;;;8.00;;
2646;SDS011;1333;50.958;6.770;2022-12-13T13:08:33;13.70;;;8.20;;
2646;SDS011;1333;50.958;6.770;2022-12-13T13:10:51;15.00;;;8.40;;
2646;SDS011;1333;50.958;6.770;2022-12-13T13:16:43;14.50;;;10.40;;
2646;SDS011;1333;50.958;6.770;2022-12-13T13:19:26;18.97;;;7.93;;
2646;SDS011;1333;50.958;6.770;2022-12-13T13:21:56;15.80;;;7.13;;
2646;SDS011;1333;50.958;6.770;2022-12-13T13:24:29;11.10;;;6.83;;
2646;SDS011;1333;50.958;6.770;2022-12-13T13:26:56;10.47;;;7.13;;
2646;SDS011;1333;50.958;6.770;2022-12-13T13:31:54;14.10;;;7.10;;
2646;SDS011;1333;50.958;6.770;2022-12-13T13:34:21;15.33;;;7.00;;
2646;SDS011;1333;50.958;6.770;2022-12-13T13:36:52;15.10;;;6.47;;
2646;SDS011;1333;50.958;6.770;2022-12-13T13:47:54;10.53;;;5.60;;
2646;SDS011;1333;50.958;6.770;2022-12-13T13:57:53;10.77;;;6.33;;
2646;SDS011;1333;50.958;6.770;2022-12-13T14:03:40;9.50;;;6.43;;
2646;SDS011;1333;50.958;6.770;2022-12-13T14:06:20;10.77;;;5.93;;
2646;SDS011;1333;50.958;6.770;2022-12-13T14:09:01;14.33;;;6.80;;
2646;SDS011;1333;50.958;6.770;2022-12-13T14:20:44;12.07;;;5.90;;
2646;SDS011;1333;50.958;6.770;2022-12-13T14:28:47;10.17;;;5.30;;
2646;SDS011;1333;50.958;6.770;2022-12-13T14:31:19;12.10;;;5.60;;
2646;SDS011;1333;50.958;6.770;2022-12-13T14:34:06;11.47;;;4.50;;
2646;SDS011;1333;50.958;6.770;2022-12-13T14:37:04;7.13;;;4.50;;
2646;SDS011;1333;50.958;6.770;2022-12-13T14:39:42;9.43;;;3.20;;
2646;SDS011;1333;50.958;6.770;2022-12-13T14:42:28;10.23;;;4.27;;
2646;SDS011;1333;50.958;6.770;2022-12-13T14:45:13;13.63;;;5.23;;
2646;SDS011;1333;50.958;6.770;2022-12-13T14:47:45;6.97;;;3.93;;
2646;SDS011;1333;50.958;6.770;2022-12-13T14:50:12;8.70;;;4.63;;
2646;SDS011;1333;50.958;6.770;2022-12-13T14:52:44;12.00;;;5.27;;
2646;SDS011;1333;50.958;6.770;2022-12-13T14:55:31;11.13;;;4.83;;
2646;SDS011;1333;50.958;6.770;2022-12-13T14:58:00;4.40;;;3.43;;
2646;SDS011;1333;50.958;6.770;2022-12-13T15:00:32;11.07;;;4.80;;
2646;SDS011;1333;50.958;6.770;2022-12-13T15:03:02;9.13;;;4.93;;
2646;SDS011;1333;50.958;6.770;2022-12-13T15:05:31;9.10;;;4.60;;
2646;SDS011;1333;50.958;6.770;2022-12-13T15:08:09;10.43;;;5.30;;
2646;SDS011;1333;50.958;6.770;2022-12-13T15:10:39;13.47;;;5.87;;
2646;SDS011;1333;50.958;6.770;2022-12-13T15:13:25;14.40;;;4.60;;
2646;SDS011;1333;50.958;6.770;2022-12-13T15:15:58;13.57;;;5.13;;
2646;SDS011;1333;50.958;6.770;2022-12-13T15:18:26;5.97;;;3.90;;
2646;SDS011;1333;50.958;6.770;2022-12-13T15:20:54;8.33;;;4.33;;
2646;SDS011;1333;50.958;6.770;2022-12-13T15:23:25;9.73;;;5.43;;
2646;SDS011;1333;50.958;6.770;2022-12-13T15:28:38;12.90;;;5.13;;
2646;SDS011;1333;50.958;6.770;2022-12-13T15:31:05;8.23;;;4.07;;
2646;SDS011;1333;50.958;6.770;2022-12-13T15:33:36;9.33;;;6.20;;
2646;SDS011;1333;50.958;6.770;2022-12-13T15:36:03;8.30;;;4.80;;
2646;SDS011;1333;50.958;6.770;2022-12-13T15:41:19;12.83;;;5.70;;
2646;SDS011;1333;50.958;6.770;2022-12-13T15:43:57;7.00;;;4.70;;
2646;SDS011;1333;50.958;6.770;2022-12-13T15:46:26;8.00;;;4.60;;
2646;SDS011;1333;50.958;6.770;2022-12-13T15:48:58;6.10;;;4.50;;
2646;SDS011;1333;50.958;6.770;2022-12-13T15:51:26;10.13;;;4.70;;
2646;SDS011;1333;50.958;6.770;2022-12-13T15:54:05;7.57;;;4.07;;
2646;SDS011;1333;50.958;6.770;2022-12-13T15:56:35;13.40;;;5.17;;
2646;SDS011;1333;50.958;6.770;2022-12-13T15:59:03;14.57;;;4.50;;
2646;SDS011;1333;50.958;6.770;2022-12-13T16:01:30;7.60;;;5.10;;
2646;SDS011;1333;50.958;6.770;2022-12-13T16:03:59;10.60;;;4.53;;
2646;SDS011;1333;50.958;6.770;2022-12-13T16:06:27;9.07;;;5.10;;
2646;SDS011;1333;50.958;6.770;2022-12-13T16:08:55;11.67;;;5.40;;
2646;SDS011;1333;50.958;6.770;2022-12-13T16:11:30;14.87;;;4.60;;
2646;SDS011;1333;50.958;6.770;2022-12-13T16:19:53;12.27;;;5.07;;
2646;SDS011;1333;50.958;6.770;2022-12-13T16:22:20;10.20;;;4.57;;
2646;SDS011;1333;50.958;6.770;2022-12-13T16:24:48;7.03;;;3.97;;
2646;SDS011;1333;50.958;6.770;2022-12-13T16:27:14;9.00;;;4.87;;
2646;SDS011;1333;50.958;6.770;2022-12-13T16:29:40;9.53;;;5.13;;
2646;SDS011;1333;50.958;6.770;2022-12-13T16:32:05;9.27;;;4.90;;
2646;SDS011;1333;50.958;6.770;2022-12-13T16:34:31;15.23;;;5.47;;
2646;SDS011;1333;50.958;6.770;2022-12-13T16:36:57;12.63;;;4.67;;
2646;SDS011;1333;50.958;6.770;2022-12-13T16:39:25;10.87;;;4.90;;
2646;SDS011;1333;50.958;6.770;2022-12-13T16:41:51;6.70;;;4.50;;
2646;SDS011;1333;50.958;6.770;2022-12-13T16:44:22;8.73;;;4.30;;
2646;SDS011;1333;50.958;6.770;2022-12-13T16:46:57;9.63;;;5.30;;
2646;SDS011;1333;50.958;6.770;2022-12-13T16:49:27;8.60;;;5.10;;
2646;SDS011;1333;50.958;6.770;2022-12-13T16:51:53;9.10;;;4.20;;
2646;SDS011;1333;50.958;6.770;2022-12-13T16:54:47;8.27;;;4.07;;
2646;SDS011;1333;50.958;6.770;2022-12-13T16:57:27;10.93;;;5.27;;
2646;SDS011;1333;50.958;6.770;2022-12-13T16:59:53;12.70;;;4.80;;
2646;SDS011;1333;50.958;6.770;2022-12-13T17:02:18;15.77;;;5.13;;
2646;SDS011;1333;50.958;6.770;2022-12-13T17:04:44;13.67;;;5.50;;
2646;SDS011;1333;50.958;6.770;2022-12-13T17:07:09;10.40;;;4.90;;
2646;SDS011;1333;50.958;6.770;2022-12-13T17:09:35;8.63;;;4.40;;
2646;SDS011;1333;50.958;6.770;2022-12-13T17:12:00;8.60;;;5.77;;
2646;SDS011;1333;50.958;6.770;2022-12-13T17:14:26;6.00;;;3.90;;
2646;SDS011;1333;50.958;6.770;2022-12-13T17:16:51;8.83;;;4.93;;
2646;SDS011;1333;50.958;6.770;2022-12-13T17:19:17;15.30;;;6.30;;
2646;SDS011;1333;50.958;6.770;2022-12-13T17:21:43;9.00;;;5.47;;
2646;SDS011;1333;50.958;6.770;2022-12-13T17:24:08;12.40;;;4.73;;
2646;SDS011;1333;50.958;6.770;2022-12-13T17:26:34;12.57;;;6.07;;
2646;SDS011;1333;50.958;6.770;2022-12-13T17:29:00;12.03;;;5.20;;